PWSweather.com
Personal Weather Stations
Station Observations
RAINWISE1
Me, Trenton, ME 04605

MeTrenton, ME 04605

Lat: 44.4672899, Lon: -68.361951

Elevation: 58

Station Type: Rainwise MK-III

Latest ConditionsUpdated 3:59:00 AM EST Thursday, Dec 12, 2019
Currently Today's Max Today's Min Today's Average
Temperature 23.5°F-4.7°C 24.1°F-4.4°C 14.9°F-9.5°C 22.0°F-5.6°C
Dew Point 16.5°F-8.6°C 22.1°F-5.5°C 13.7°F-10.2°C 18.3°F-7.6°C
Winds 7.4 mph NNW11.9 kmh NNW 8.5 mph -13.7 kmh - - 4.0 mph 6.4 kmh
Wind Gusts -- -- - -
Humidity 74% 95% 74% 86%
Pressure 30.37 in1028.4 mb 30.37 in1028.4 mb 30.17 in1021.7 mb -
Hour Temp Dew Point Humidity Winds Wind Gusts Pressure Precip Precip Rate Daily Precip Total
03:59 AM 23.5°F-4.7°C 16.5°F-8.6°C 74% 7.4 mph NNW11.9 kmh NNW -- 30.37 in1028.4 mb 0.00 in0.0 mm 0.00 in0.0 mm 0.00 in0.0 mm
03:54 AM 23.6°F-4.7°C 16.9°F-8.4°C 75% 6.0 mph NNW9.7 kmh NNW -- 30.36 in1028.1 mb 0.00 in0.0 mm 0.00 in0.0 mm 0.00 in0.0 mm
03:48 AM 23.6°F-4.7°C 17.2°F-8.2°C 76% 4.3 mph NW6.9 kmh NW -- 30.35 in1027.8 mb 0.00 in0.0 mm 0.00 in0.0 mm 0.00 in0.0 mm
03:43 AM 23.6°F-4.7°C 17.5°F-8.1°C 77% 3.9 mph NNW6.3 kmh NNW -- 30.34 in1027.4 mb 0.00 in0.0 mm 0.00 in0.0 mm 0.00 in0.0 mm
03:37 AM 23.3°F-4.8°C 17.8°F-7.9°C 79% 6.8 mph NNW10.9 kmh NNW -- 30.34 in1027.4 mb 0.00 in0.0 mm 0.00 in0.0 mm 0.00 in0.0 mm
03:32 AM 23.0°F-5.0°C 17.8°F-7.9°C 80% 6.0 mph NW9.7 kmh NW -- 30.34 in1027.4 mb 0.00 in0.0 mm 0.00 in0.0 mm 0.00 in0.0 mm
03:27 AM 22.8°F-5.1°C 17.3°F-8.2°C 79% 5.7 mph NNW9.2 kmh NNW -- 30.33 in1027.1 mb 0.00 in0.0 mm 0.00 in0.0 mm 0.00 in0.0 mm
03:21 AM 23.3°F-4.8°C 17.8°F-7.9°C 79% 1.7 mph NNW2.7 kmh NNW -- 30.33 in1027.1 mb 0.00 in0.0 mm 0.00 in0.0 mm 0.00 in0.0 mm
03:16 AM 23.8°F-4.6°C 18.3°F-7.6°C 79% 1.3 mph N2.1 kmh N -- 30.33 in1027.1 mb 0.00 in0.0 mm 0.00 in0.0 mm 0.00 in0.0 mm
03:10 AM 23.9°F-4.5°C 18.4°F-7.6°C 79% 5.0 mph NW8.0 kmh NW -- 30.33 in1027.1 mb 0.00 in0.0 mm 0.00 in0.0 mm 0.00 in0.0 mm
03:04 AM 24.0°F-4.4°C 18.5°F-7.5°C 79% 2.0 mph NW3.2 kmh NW -- 30.32 in1026.8 mb 0.00 in0.0 mm 0.00 in0.0 mm 0.00 in0.0 mm
02:58 AM 24.1°F-4.4°C 18.5°F-7.5°C 79% 3.9 mph NW6.3 kmh NW -- 30.32 in1026.8 mb 0.00 in0.0 mm 0.00 in0.0 mm 0.00 in0.0 mm
02:52 AM 24.1°F-4.4°C 18.5°F-7.5°C 79% 2.5 mph WNW4.0 kmh WNW -- 30.31 in1026.4 mb 0.00 in0.0 mm 0.00 in0.0 mm 0.00 in0.0 mm
02:47 AM 24.1°F-4.4°C 18.8°F-7.3°C 80% 6.8 mph NW10.9 kmh NW -- 30.31 in1026.4 mb 0.00 in0.0 mm 0.00 in0.0 mm 0.00 in0.0 mm
02:41 AM 24.0°F-4.4°C 19.0°F-7.2°C 81% 7.1 mph NW11.4 kmh NW -- 30.31 in1026.4 mb 0.00 in0.0 mm 0.00 in0.0 mm 0.00 in0.0 mm
02:36 AM 23.9°F-4.5°C 18.9°F-7.3°C 81% 3.9 mph NW6.3 kmh NW -- 30.30 in1026.1 mb 0.00 in0.0 mm 0.00 in0.0 mm 0.00 in0.0 mm
02:30 AM 23.8°F-4.6°C 19.1°F-7.2°C 82% 5.5 mph NW8.9 kmh NW -- 30.30 in1026.1 mb 0.00 in0.0 mm 0.00 in0.0 mm 0.00 in0.0 mm
02:25 AM 23.6°F-4.7°C 19.2°F-7.1°C 83% 4.0 mph NW6.4 kmh NW -- 30.29 in1025.7 mb 0.00 in0.0 mm 0.00 in0.0 mm 0.00 in0.0 mm
02:19 AM 23.6°F-4.7°C 19.2°F-7.1°C 83% 4.3 mph NW6.9 kmh NW -- 30.29 in1025.7 mb 0.00 in0.0 mm 0.00 in0.0 mm 0.00 in0.0 mm
02:14 AM 23.6°F-4.7°C 19.5°F-6.9°C 84% 4.1 mph NW6.6 kmh NW -- 30.28 in1025.4 mb 0.00 in0.0 mm 0.00 in0.0 mm 0.00 in0.0 mm
02:09 AM 23.6°F-4.7°C 19.8°F-6.8°C 85% 4.6 mph NW7.4 kmh NW -- 30.28 in1025.4 mb 0.00 in0.0 mm 0.00 in0.0 mm 0.00 in0.0 mm
02:04 AM 23.3°F-4.8°C 19.5°F-6.9°C 85% 5.1 mph NW8.2 kmh NW -- 30.27 in1025.1 mb 0.00 in0.0 mm 0.00 in0.0 mm 0.00 in0.0 mm
01:58 AM 23.4°F-4.8°C 19.8°F-6.8°C 86% 5.2 mph NNW8.4 kmh NNW -- 30.27 in1025.1 mb 0.00 in0.0 mm 0.00 in0.0 mm 0.00 in0.0 mm
01:53 AM 23.6°F-4.7°C 20.0°F-6.7°C 86% 4.1 mph NNW6.6 kmh NNW -- 30.27 in1025.1 mb 0.00 in0.0 mm 0.00 in0.0 mm 0.00 in0.0 mm
01:47 AM 23.6°F-4.7°C 20.3°F-6.5°C 87% 8.5 mph NNW13.7 kmh NNW -- 30.26 in1024.7 mb 0.00 in0.0 mm 0.00 in0.0 mm 0.00 in0.0 mm
01:42 AM 23.4°F-4.8°C 20.4°F-6.4°C 88% 5.9 mph NW9.5 kmh NW -- 30.26 in1024.7 mb 0.00 in0.0 mm 0.00 in0.0 mm 0.00 in0.0 mm
01:36 AM 23.0°F-5.0°C 20.3°F-6.5°C 89% 5.4 mph NW8.7 kmh NW -- 30.25 in1024.4 mb 0.00 in0.0 mm 0.00 in0.0 mm 0.00 in0.0 mm
01:31 AM 22.8°F-5.1°C 20.1°F-6.6°C 89% 4.6 mph NW7.4 kmh NW -- 30.25 in1024.4 mb 0.00 in0.0 mm 0.00 in0.0 mm 0.00 in0.0 mm
01:25 AM 22.8°F-5.1°C 20.3°F-6.5°C 90% 6.6 mph NW10.6 kmh NW -- 30.24 in1024.0 mb 0.00 in0.0 mm 0.00 in0.0 mm 0.00 in0.0 mm
01:20 AM 22.8°F-5.1°C 20.3°F-6.5°C 90% 5.8 mph NW9.3 kmh NW -- 30.24 in1024.0 mb 0.00 in0.0 mm 0.00 in0.0 mm 0.00 in0.0 mm
01:14 AM 22.8°F-5.1°C 20.6°F-6.3°C 91% 3.5 mph NW5.6 kmh NW -- 30.23 in1023.7 mb 0.00 in0.0 mm 0.00 in0.0 mm 0.00 in0.0 mm
01:09 AM 22.8°F-5.1°C 20.6°F-6.3°C 91% 1.5 mph NW2.4 kmh NW -- 30.23 in1023.7 mb 0.00 in0.0 mm 0.00 in0.0 mm 0.00 in0.0 mm
01:04 AM 23.0°F-5.0°C 20.8°F-6.2°C 91% 3.0 mph NW4.8 kmh NW -- 30.22 in1023.4 mb 0.00 in0.0 mm 0.00 in0.0 mm 0.00 in0.0 mm
12:58 AM 23.3°F-4.8°C 21.3°F-5.9°C 92% 2.9 mph NW4.7 kmh NW -- 30.22 in1023.4 mb 0.00 in0.0 mm 0.00 in0.0 mm 0.00 in0.0 mm
12:53 AM 23.6°F-4.7°C 22.1°F-5.5°C 94% 3.5 mph NW5.6 kmh NW -- 30.21 in1023.0 mb 0.00 in0.0 mm 0.00 in0.0 mm 0.00 in0.0 mm
12:47 AM 21.5°F-5.8°C 20.3°F-6.5°C 95% 6.7 mph NW10.8 kmh NW -- 30.21 in1023.0 mb 0.00 in0.0 mm 0.00 in0.0 mm 0.00 in0.0 mm
12:42 AM 17.8°F-7.9°C 16.6°F-8.6°C 95% 5.0 mph WNW8.0 kmh WNW -- 30.20 in1022.7 mb 0.00 in0.0 mm 0.00 in0.0 mm 0.00 in0.0 mm
12:37 AM 15.6°F-9.1°C 14.4°F-9.8°C 95% Calm Calm -- 30.19 in1022.4 mb 0.00 in0.0 mm 0.00 in0.0 mm 0.00 in0.0 mm
12:31 AM 15.1°F-9.4°C 13.9°F-10.1°C 95% 0.5 mph N0.8 kmh N -- 30.18 in1022.0 mb 0.00 in0.0 mm 0.00 in0.0 mm 0.00 in0.0 mm
12:26 AM 14.9°F-9.5°C 13.7°F-10.2°C 95% Calm Calm -- 30.18 in1022.0 mb 0.00 in0.0 mm 0.00 in0.0 mm 0.00 in0.0 mm
12:20 AM 14.9°F-9.5°C 13.7°F-10.2°C 95% 0.3 mph N0.5 kmh N -- 30.18 in1022.0 mb 0.00 in0.0 mm 0.00 in0.0 mm 0.00 in0.0 mm
12:14 AM 15.1°F-9.4°C 13.9°F-10.1°C 95% Calm Calm -- 30.18 in1022.0 mb 0.00 in0.0 mm 0.00 in0.0 mm 0.00 in0.0 mm
12:08 AM 15.4°F-9.2°C 14.2°F-9.9°C 95% Calm Calm -- 30.18 in1022.0 mb 0.00 in0.0 mm 0.00 in0.0 mm 0.00 in0.0 mm
12:02 AM 15.6°F-9.1°C 14.4°F-9.8°C 95% 0.2 mph N0.3 kmh N -- 30.17 in1021.7 mb 0.00 in0.0 mm 0.00 in0.0 mm 0.00 in0.0 mm